Time;durP1;ratioP1;P1;durP2;ratioP2;P2;SDS_P1;SDS_P2;PMS_P1;PMS_P2;Temp;Humidity;BMP_temperature;BMP_pressure;BME280_temperature;BME280_humidity;BME280_pressure;Samples;Min_cycle;Max_cycle;Signal;HPM_P1;HPM_P2
2023/12/14 00:00:31;;;;;;;;;3.67;1.00;;;;;;;;5090151;28;28402;-76
2023/12/14 00:02:56;;;;;;;;;2.67;1.00;;;;;;;;5081763;28;30763;-78
2023/12/14 00:05:21;;;;;;;;;1.67;1.67;;;;;;;;5087891;27;28842;-76
2023/12/14 00:07:46;;;;;;;;;2.00;2.00;;;;;;;;5089350;28;28780;-76
2023/12/14 00:10:12;;;;;;;;;1.67;1.67;;;;;;;;5087065;27;28427;-77
2023/12/14 00:12:37;;;;;;;;;2.00;2.00;;;;;;;;5084383;28;28758;-79
2023/12/14 00:15:03;;;;;;;;;3.00;2.00;;;;;;;;5091482;27;29064;-78
2023/12/14 00:17:28;;;;;;;;;2.33;1.67;;;;;;;;5088135;28;29220;-77
2023/12/14 00:19:53;;;;;;;;;1.00;1.00;;;;;;;;5096813;27;28448;-78
2023/12/14 00:22:19;;;;;;;;;3.00;1.00;;;;;;;;5090074;27;28743;-78
2023/12/14 00:24:44;;;;;;;;;3.00;1.67;;;;;;;;5092513;27;28455;-77
2023/12/14 00:27:09;;;;;;;;;1.67;1.67;;;;;;;;5077877;28;28772;-78
2023/12/14 00:29:35;;;;;;;;;2.00;2.00;;;;;;;;5080779;27;28895;-77
2023/12/14 00:32:00;;;;;;;;;2.33;1.67;;;;;;;;5085208;27;30161;-77
2023/12/14 00:34:25;;;;;;;;;1.67;1.67;;;;;;;;5091233;28;29301;-77
2023/12/14 00:36:50;;;;;;;;;2.00;1.00;;;;;;;;5089475;28;28409;-77
2023/12/14 00:39:16;;;;;;;;;1.00;1.00;;;;;;;;5085858;27;28488;-77
2023/12/14 00:41:41;;;;;;;;;3.67;2.00;;;;;;;;5083758;27;29268;-78
2023/12/14 00:44:06;;;;;;;;;1.33;1.33;;;;;;;;5080068;27;28536;-80
2023/12/14 00:46:31;;;;;;;;;2.00;2.00;;;;;;;;5076057;28;28768;-78
2023/12/14 00:48:57;;;;;;;;;2.00;2.00;;;;;;;;5080484;27;28630;-79
2023/12/14 00:51:22;;;;;;;;;0.00;0.00;;;;;;;;5085359;28;28521;-78
2023/12/14 00:53:47;;;;;;;;;2.00;2.00;;;;;;;;5078469;27;28857;-77
2023/12/14 00:56:12;;;;;;;;;1.00;1.00;;;;;;;;5078826;27;28488;-77
2023/12/14 00:58:38;;;;;;;;;1.67;1.00;;;;;;;;5088229;27;28524;-77
2023/12/14 01:01:03;;;;;;;;;2.67;0.00;;;;;;;;5080092;27;28627;-77
2023/12/14 01:03:28;;;;;;;;;1.33;0.00;;;;;;;;5080420;27;28527;-78
2023/12/14 01:05:54;;;;;;;;;1.00;0.00;;;;;;;;5088124;28;28554;-78
2023/12/14 01:08:19;;;;;;;;;0.00;0.00;;;;;;;;5089453;28;28460;-79
2023/12/14 01:10:44;;;;;;;;;0.00;0.00;;;;;;;;5090859;28;28878;-78
2023/12/14 01:13:09;;;;;;;;;2.00;1.00;;;;;;;;5081976;28;28688;-79
2023/12/14 01:15:34;;;;;;;;;0.00;0.00;;;;;;;;5084311;28;28607;-78
2023/12/14 01:18:00;;;;;;;;;1.00;1.00;;;;;;;;5086650;28;28780;-78
2023/12/14 01:20:25;;;;;;;;;2.00;1.00;;;;;;;;5085487;27;28246;-77
2023/12/14 01:22:50;;;;;;;;;1.00;1.00;;;;;;;;5087933;28;29031;-76
2023/12/14 01:25:15;;;;;;;;;2.00;2.00;;;;;;;;5076676;28;28516;-78
2023/12/14 01:27:41;;;;;;;;;2.00;0.67;;;;;;;;5082232;28;28249;-79
2023/12/14 01:30:07;;;;;;;;;1.00;1.00;;;;;;;;5072612;28;28998;-78
2023/12/14 01:32:32;;;;;;;;;0.67;0.67;;;;;;;;5080173;28;29170;-78
2023/12/14 01:34:58;;;;;;;;;0.00;0.00;;;;;;;;5089732;28;28448;-77
2023/12/14 01:37:23;;;;;;;;;2.00;0.00;;;;;;;;5083691;28;28715;-77
2023/12/14 01:39:48;;;;;;;;;1.00;1.00;;;;;;;;5087857;28;28436;-78
2023/12/14 01:42:14;;;;;;;;;3.33;1.00;;;;;;;;5098853;27;28411;-76
2023/12/14 01:44:39;;;;;;;;;1.00;1.00;;;;;;;;5101861;27;28470;-77
2023/12/14 01:47:04;;;;;;;;;1.33;1.00;;;;;;;;5091850;28;28441;-77
2023/12/14 01:49:29;;;;;;;;;4.00;1.33;;;;;;;;5093032;28;28634;-79
2023/12/14 01:51:54;;;;;;;;;2.00;0.33;;;;;;;;5087559;28;29924;-78
2023/12/14 01:54:20;;;;;;;;;2.00;0.67;;;;;;;;5087015;28;28808;-79
2023/12/14 01:56:46;;;;;;;;;3.00;1.33;;;;;;;;5091562;28;28507;-78
2023/12/14 01:59:11;;;;;;;;;0.33;0.33;;;;;;;;5080377;27;28101;-77
2023/12/14 02:01:42;;;;;;;;;1.00;1.00;;;;;;;;5090881;28;30047;-78
2023/12/14 02:04:07;;;;;;;;;2.00;0.33;;;;;;;;5092093;28;28527;-77
2023/12/14 02:06:32;;;;;;;;;2.33;1.00;;;;;;;;5091362;28;28596;-78
2023/12/14 02:08:57;;;;;;;;;2.33;0.00;;;;;;;;5094797;28;28565;-80
2023/12/14 02:11:23;;;;;;;;;1.00;0.00;;;;;;;;5097199;27;28535;-77
2023/12/14 02:13:48;;;;;;;;;0.00;0.00;;;;;;;;5097983;27;28688;-77
2023/12/14 02:16:13;;;;;;;;;2.33;0.00;;;;;;;;5095526;28;28517;-78
2023/12/14 02:18:38;;;;;;;;;2.33;0.67;;;;;;;;5098859;27;28411;-76
2023/12/14 02:21:04;;;;;;;;;1.33;1.00;;;;;;;;5104698;27;30140;-78
2023/12/14 02:23:29;;;;;;;;;0.33;0.33;;;;;;;;5096389;27;28756;-78
2023/12/14 02:25:55;;;;;;;;;2.33;0.00;;;;;;;;5083929;28;28554;-77
2023/12/14 02:28:20;;;;;;;;;0.00;0.00;;;;;;;;5092836;28;28499;-76
2023/12/14 02:30:45;;;;;;;;;3.00;0.00;;;;;;;;5081490;28;28580;-78
2023/12/14 02:33:10;;;;;;;;;1.33;1.33;;;;;;;;5098492;28;27968;-78
2023/12/14 02:35:35;;;;;;;;;0.33;0.33;;;;;;;;5094678;28;28401;-76
2023/12/14 02:38:01;;;;;;;;;1.00;1.00;;;;;;;;5084407;28;28503;-77
2023/12/14 02:40:26;;;;;;;;;0.67;0.00;;;;;;;;5084818;28;28445;-77
2023/12/14 02:42:51;;;;;;;;;3.33;0.67;;;;;;;;5086761;27;28381;-77
2023/12/14 02:45:17;;;;;;;;;2.00;1.00;;;;;;;;5088812;27;28672;-76
2023/12/14 02:47:42;;;;;;;;;1.00;0.00;;;;;;;;5080107;27;28718;-78
2023/12/14 02:50:07;;;;;;;;;1.67;0.00;;;;;;;;5089086;28;28663;-78
2023/12/14 02:52:32;;;;;;;;;1.67;1.00;;;;;;;;5089705;27;28884;-78
2023/12/14 02:54:58;;;;;;;;;1.00;0.00;;;;;;;;5090802;28;28535;-78
2023/12/14 02:57:23;;;;;;;;;1.67;0.33;;;;;;;;5079433;27;29056;-77
2023/12/14 02:59:48;;;;;;;;;0.00;0.00;;;;;;;;5090266;28;29223;-78
2023/12/14 03:02:13;;;;;;;;;0.00;0.00;;;;;;;;5081819;28;29196;-78
2023/12/14 03:04:41;;;;;;;;;1.00;0.00;;;;;;;;5084218;27;29149;-79
2023/12/14 03:07:07;;;;;;;;;0.00;0.00;;;;;;;;5088503;28;28785;-77
2023/12/14 03:09:32;;;;;;;;;0.00;0.00;;;;;;;;5088954;28;28654;-79
2023/12/14 03:11:58;;;;;;;;;0.00;0.00;;;;;;;;5074082;28;28525;-77
2023/12/14 03:14:24;;;;;;;;;1.00;0.00;;;;;;;;5090678;28;28503;-78
2023/12/14 03:16:49;;;;;;;;;1.00;0.00;;;;;;;;5082699;28;29844;-78
2023/12/14 03:19:15;;;;;;;;;0.67;0.67;;;;;;;;5082855;28;28585;-79
2023/12/14 03:21:41;;;;;;;;;0.00;0.00;;;;;;;;5090890;27;28510;-78
2023/12/14 03:24:06;;;;;;;;;0.00;0.00;;;;;;;;5077628;28;28464;-77
2023/12/14 03:26:31;;;;;;;;;0.00;0.00;;;;;;;;5092265;28;28471;-77
2023/12/14 03:28:56;;;;;;;;;1.00;1.00;;;;;;;;5092234;28;28584;-77
2023/12/14 03:31:21;;;;;;;;;0.67;0.67;;;;;;;;5084534;28;28544;-78
2023/12/14 03:33:47;;;;;;;;;0.67;0.67;;;;;;;;5074244;28;28675;-79
2023/12/14 03:36:12;;;;;;;;;1.00;1.00;;;;;;;;5089683;28;28508;-77
2023/12/14 03:38:37;;;;;;;;;0.00;0.00;;;;;;;;5090030;28;29819;-78
2023/12/14 03:41:03;;;;;;;;;1.00;1.00;;;;;;;;5084346;28;28614;-79
2023/12/14 03:43:28;;;;;;;;;0.00;0.00;;;;;;;;5084499;28;28519;-77
2023/12/14 03:45:54;;;;;;;;;1.33;0.00;;;;;;;;5086284;27;28914;-79
2023/12/14 03:48:19;;;;;;;;;3.00;1.00;;;;;;;;5086174;27;29477;-77
2023/12/14 03:50:44;;;;;;;;;1.00;1.00;;;;;;;;5072293;28;28421;-77
2023/12/14 03:53:09;;;;;;;;;0.67;0.67;;;;;;;;5084155;28;28485;-80
2023/12/14 03:55:34;;;;;;;;;2.00;1.00;;;;;;;;5091439;27;28544;-78
2023/12/14 03:58:00;;;;;;;;;0.00;0.00;;;;;;;;5084906;27;28578;-78
2023/12/14 04:17:24;;;;;;;;;1.00;1.00;;;;;;;;5087783;28;57427;-77
2023/12/14 04:19:51;;;;;;;;;2.67;2.67;;;;;;;;5089725;27;28461;-76
2023/12/14 04:22:16;;;;;;;;;2.00;2.00;;;;;;;;5084802;27;28357;-78
2023/12/14 04:24:41;;;;;;;;;3.33;3.00;;;;;;;;5081790;28;29602;-77
2023/12/14 04:27:06;;;;;;;;;4.00;3.67;;;;;;;;5089356;27;29842;-76
2023/12/14 04:29:31;;;;;;;;;1.00;1.00;;;;;;;;5090345;28;28447;-77
2023/12/14 04:31:57;;;;;;;;;2.00;2.00;;;;;;;;5083873;28;28715;-78
2023/12/14 04:34:22;;;;;;;;;3.67;3.00;;;;;;;;5085127;28;29643;-77
2023/12/14 04:36:48;;;;;;;;;2.33;2.33;;;;;;;;5085408;28;28791;-78
2023/12/14 04:39:13;;;;;;;;;1.67;1.67;;;;;;;;5076971;28;28867;-77
2023/12/14 04:41:38;;;;;;;;;4.00;4.00;;;;;;;;5082210;28;29206;-77
2023/12/14 04:44:03;;;;;;;;;4.00;3.00;;;;;;;;5087191;28;28815;-78
2023/12/14 04:46:29;;;;;;;;;4.67;3.00;;;;;;;;5085102;28;28548;-78
2023/12/14 04:48:54;;;;;;;;;6.33;5.00;;;;;;;;5086732;28;28706;-78
2023/12/14 04:51:20;;;;;;;;;5.00;5.00;;;;;;;;5080708;28;28871;-77
2023/12/14 04:53:45;;;;;;;;;5.00;4.00;;;;;;;;5085925;28;28844;-79
2023/12/14 04:56:11;;;;;;;;;5.00;3.67;;;;;;;;5091196;27;28852;-77
2023/12/14 04:58:37;;;;;;;;;5.00;3.00;;;;;;;;5078641;27;28574;-76
2023/12/14 05:01:02;;;;;;;;;5.67;5.00;;;;;;;;5085377;28;28448;-78
2023/12/14 05:03:27;;;;;;;;;2.33;2.33;;;;;;;;5086677;28;28401;-77
2023/12/14 05:05:53;;;;;;;;;6.00;4.00;;;;;;;;5085267;28;28406;-79
2023/12/14 05:08:18;;;;;;;;;5.00;3.67;;;;;;;;5089891;28;28421;-77
2023/12/14 05:10:43;;;;;;;;;6.00;3.33;;;;;;;;5087205;27;28785;-77
2023/12/14 05:13:08;;;;;;;;;4.00;3.00;;;;;;;;5083975;28;28704;-80
2023/12/14 05:15:34;;;;;;;;;5.67;5.00;;;;;;;;5070330;28;28381;-78
2023/12/14 05:17:59;;;;;;;;;10.00;5.00;;;;;;;;5087226;28;28792;-77
2023/12/14 05:20:24;;;;;;;;;6.67;5.67;;;;;;;;5083486;27;28446;-71
2023/12/14 05:22:49;;;;;;;;;4.33;4.33;;;;;;;;5085676;27;28734;-68
2023/12/14 05:25:14;;;;;;;;;4.00;4.00;;;;;;;;5085917;27;29775;-69
2023/12/14 05:27:40;;;;;;;;;4.67;4.67;;;;;;;;5081472;28;28623;-68
2023/12/14 05:30:05;;;;;;;;;4.00;3.00;;;;;;;;5086241;28;28670;-69
2023/12/14 05:32:30;;;;;;;;;6.00;5.00;;;;;;;;5074369;28;28552;-68
2023/12/14 05:34:56;;;;;;;;;5.00;5.00;;;;;;;;5075289;27;28450;-70
2023/12/14 05:37:21;;;;;;;;;5.33;3.00;;;;;;;;5084445;28;28837;-70
2023/12/14 05:39:46;;;;;;;;;8.33;4.67;;;;;;;;5082210;28;28455;-70
2023/12/14 05:42:11;;;;;;;;;6.00;5.67;;;;;;;;5086223;28;28529;-71
2023/12/14 05:44:37;;;;;;;;;4.67;3.00;;;;;;;;5081749;28;28512;-70
2023/12/14 05:47:05;;;;;;;;;6.00;4.33;;;;;;;;5088105;28;28791;-70
2023/12/14 05:49:30;;;;;;;;;7.33;5.00;;;;;;;;5076053;28;28521;-69
2023/12/14 05:51:58;;;;;;;;;6.33;4.33;;;;;;;;5081937;28;28571;-69
2023/12/14 05:54:23;;;;;;;;;6.33;5.33;;;;;;;;5080055;28;29246;-71
2023/12/14 05:56:49;;;;;;;;;6.67;3.33;;;;;;;;5083903;28;28607;-70
2023/12/14 05:59:14;;;;;;;;;4.00;4.00;;;;;;;;5085793;28;28806;-70
2023/12/14 06:01:39;;;;;;;;;4.00;3.67;;;;;;;;5074330;27;28520;-75
2023/12/14 06:04:04;;;;;;;;;5.00;4.00;;;;;;;;5070935;28;28793;-70
2023/12/14 06:06:30;;;;;;;;;5.67;4.00;;;;;;;;5072178;28;28966;-71
2023/12/14 06:08:55;;;;;;;;;3.00;2.00;;;;;;;;5071810;28;28571;-73
2023/12/14 06:11:21;;;;;;;;;6.33;4.33;;;;;;;;5076560;28;28438;-83
2023/12/14 06:13:46;;;;;;;;;5.00;4.00;;;;;;;;5071432;28;28433;-72
2023/12/14 06:16:12;;;;;;;;;5.00;4.33;;;;;;;;5079177;28;29170;-72
2023/12/14 06:18:39;;;;;;;;;2.33;2.33;;;;;;;;5071924;28;28668;-75
2023/12/14 06:21:05;;;;;;;;;3.00;3.00;;;;;;;;5078094;27;28556;-72
2023/12/14 06:23:30;;;;;;;;;4.00;3.00;;;;;;;;5071831;28;28544;-74
2023/12/14 06:25:55;;;;;;;;;6.67;4.67;;;;;;;;5071850;28;28614;-72
2023/12/14 06:28:21;;;;;;;;;5.33;4.67;;;;;;;;5075164;28;28589;-72
2023/12/14 06:30:46;;;;;;;;;6.00;2.67;;;;;;;;5078105;28;28556;-71
2023/12/14 06:33:11;;;;;;;;;3.67;3.00;;;;;;;;5071265;28;29383;-79
2023/12/14 06:35:37;;;;;;;;;5.00;3.67;;;;;;;;5075653;28;28571;-77
2023/12/14 06:38:02;;;;;;;;;3.00;3.00;;;;;;;;5083696;28;28872;-78
2023/12/14 06:40:27;;;;;;;;;1.67;1.00;;;;;;;;5078799;28;28529;-80
2023/12/14 06:42:53;;;;;;;;;3.00;1.67;;;;;;;;5070996;28;29811;-72
2023/12/14 06:45:18;;;;;;;;;2.00;2.00;;;;;;;;5075583;28;28416;-73
2023/12/14 06:47:46;;;;;;;;;4.33;2.33;;;;;;;;5073479;28;28544;-70
2023/12/14 06:50:12;;;;;;;;;7.33;2.33;;;;;;;;5080584;27;28906;-71
2023/12/14 06:52:37;;;;;;;;;2.33;2.00;;;;;;;;5075241;28;30119;-70
2023/12/14 06:55:03;;;;;;;;;3.00;2.00;;;;;;;;5077758;27;28496;-71
2023/12/14 06:57:29;;;;;;;;;3.00;3.00;;;;;;;;5070968;27;28557;-70
2023/12/14 06:59:54;;;;;;;;;4.33;2.00;;;;;;;;5076602;27;28883;-71
2023/12/14 07:02:20;;;;;;;;;3.67;3.00;;;;;;;;5076770;27;28671;-70
2023/12/14 07:04:45;;;;;;;;;5.67;5.33;;;;;;;;5073710;27;28516;-70
2023/12/14 07:07:12;;;;;;;;;6.33;3.33;;;;;;;;5069410;27;28837;-71
2023/12/14 07:09:38;;;;;;;;;7.00;5.00;;;;;;;;5080586;27;28492;-73
2023/12/14 07:12:03;;;;;;;;;7.00;5.00;;;;;;;;5072878;27;28878;-70
2023/12/14 07:14:29;;;;;;;;;17.67;17.67;;;;;;;;5082087;28;28551;-71
2023/12/14 07:16:54;;;;;;;;;8.33;5.67;;;;;;;;5079577;27;28589;-75
2023/12/14 07:19:19;;;;;;;;;7.00;4.00;;;;;;;;5076508;28;28524;-79
2023/12/14 07:21:44;;;;;;;;;7.67;5.33;;;;;;;;5086681;27;29629;-71
2023/12/14 07:24:10;;;;;;;;;7.00;5.00;;;;;;;;5064235;28;28767;-79
2023/12/14 07:26:54;;;;;;;;;6.67;4.00;;;;;;;;5085178;27;28598;-72
2023/12/14 07:29:20;;;;;;;;;49.00;37.33;;;;;;;;5083038;27;29228;-80
2023/12/14 07:31:46;;;;;;;;;6.67;3.33;;;;;;;;5089468;27;28508;-82
2023/12/14 07:34:11;;;;;;;;;3.67;3.67;;;;;;;;5076716;27;28498;-79
2023/12/14 07:36:37;;;;;;;;;9.00;6.33;;;;;;;;5088467;27;28610;-71
2023/12/14 07:39:03;;;;;;;;;3.33;3.33;;;;;;;;5096813;27;30190;-71
2023/12/14 07:41:29;;;;;;;;;12.67;10.00;;;;;;;;5079145;27;29889;-72
2023/12/14 07:43:55;;;;;;;;;5.00;4.00;;;;;;;;5073893;27;28543;-73
2023/12/14 07:46:20;;;;;;;;;5.00;4.00;;;;;;;;5078890;27;28764;-72
2023/12/14 07:48:52;;;;;;;;;3.00;2.33;;;;;;;;5088768;27;29217;-79
2023/12/14 07:51:18;;;;;;;;;2.00;2.00;;;;;;;;5088421;27;30020;-79
2023/12/14 07:53:46;;;;;;;;;7.00;7.00;;;;;;;;5096753;27;28564;-79
2023/12/14 07:56:11;;;;;;;;;6.67;5.00;;;;;;;;5091159;28;28418;-80
2023/12/14 07:58:37;;;;;;;;;9.33;5.00;;;;;;;;5096484;27;29425;-72
2023/12/14 08:01:17;;;;;;;;;;;;;;;;;;;;;
2023/12/14 08:03:43;;;;;;;;;5.33;4.00;;;;;;;;5094248;28;57431;-78
2023/12/14 08:06:08;;;;;;;;;5.67;4.00;;;;;;;;5086337;28;29837;-75
2023/12/14 08:08:33;;;;;;;;;5.00;5.00;;;;;;;;5090394;28;28690;-78
2023/12/14 08:10:58;;;;;;;;;5.33;5.00;;;;;;;;5099433;27;28569;-78
2023/12/14 08:13:24;;;;;;;;;4.00;3.00;;;;;;;;5087367;28;29083;-79
2023/12/14 08:15:51;;;;;;;;;8.33;6.00;;;;;;;;5086479;28;29066;-77
2023/12/14 08:18:17;;;;;;;;;5.00;4.00;;;;;;;;5087358;28;28458;-77
2023/12/14 08:20:43;;;;;;;;;7.67;5.33;;;;;;;;5096300;27;28590;-81
2023/12/14 08:23:09;;;;;;;;;7.00;5.00;;;;;;;;5089233;27;28993;-78
2023/12/14 08:25:34;;;;;;;;;8.67;6.00;;;;;;;;5093878;28;28468;-79
2023/12/14 08:28:00;;;;;;;;;5.00;2.67;;;;;;;;5096189;27;28929;-79
2023/12/14 08:30:25;;;;;;;;;9.00;6.00;;;;;;;;5089220;28;28518;-79
2023/12/14 08:32:53;;;;;;;;;7.33;6.00;;;;;;;;5086116;28;28854;-79
2023/12/14 08:35:19;;;;;;;;;9.67;7.67;;;;;;;;5088133;28;28577;-78
2023/12/14 08:37:47;;;;;;;;;7.00;4.67;;;;;;;;5095464;27;29017;-80
2023/12/14 08:40:13;;;;;;;;;5.00;4.00;;;;;;;;5075311;28;28463;-78
2023/12/14 08:42:38;;;;;;;;;15.33;12.00;;;;;;;;5091757;28;28445;-79
2023/12/14 08:45:04;;;;;;;;;15.00;13.00;;;;;;;;5093369;27;28545;-78
2023/12/14 08:47:29;;;;;;;;;5.33;4.00;;;;;;;;5082034;28;28824;-80
2023/12/14 08:49:55;;;;;;;;;6.00;4.67;;;;;;;;5087970;27;29797;-76
2023/12/14 08:52:22;;;;;;;;;15.67;13.33;;;;;;;;5076927;27;28481;-79
2023/12/14 08:54:48;;;;;;;;;10.67;9.67;;;;;;;;5088334;28;28985;-79
2023/12/14 08:57:13;;;;;;;;;10.67;10.67;;;;;;;;5080744;27;28772;-71
2023/12/14 08:59:38;;;;;;;;;13.67;11.67;;;;;;;;5079454;28;28988;-72
2023/12/14 09:02:04;;;;;;;;;4.67;4.67;;;;;;;;5085639;27;28754;-71
2023/12/14 09:04:29;;;;;;;;;3.00;3.00;;;;;;;;5086660;27;28582;-73
2023/12/14 09:06:54;;;;;;;;;8.00;4.33;;;;;;;;5087225;28;28938;-73
2023/12/14 09:09:20;;;;;;;;;4.00;4.00;;;;;;;;5080900;28;28575;-70
2023/12/14 09:11:45;;;;;;;;;4.67;4.67;;;;;;;;5087465;28;28526;-72
2023/12/14 09:14:10;;;;;;;;;4.00;4.00;;;;;;;;5087879;28;28437;-72
2023/12/14 09:16:35;;;;;;;;;10.00;8.67;;;;;;;;5086274;28;28784;-73
2023/12/14 09:19:01;;;;;;;;;11.00;8.00;;;;;;;;5088246;28;29293;-72
2023/12/14 09:21:26;;;;;;;;;9.33;6.00;;;;;;;;5097790;27;30099;-72
2023/12/14 09:23:53;;;;;;;;;4.67;4.00;;;;;;;;5089000;28;28492;-73
2023/12/14 09:26:22;;;;;;;;;5.00;5.00;;;;;;;;5088309;28;28621;-70
2023/12/14 09:28:47;;;;;;;;;7.00;5.00;;;;;;;;5078225;28;28533;-79
2023/12/14 09:31:12;;;;;;;;;5.00;5.00;;;;;;;;5088650;28;28854;-79
2023/12/14 09:33:38;;;;;;;;;4.00;4.00;;;;;;;;5089017;28;28606;-79
2023/12/14 09:36:03;;;;;;;;;5.00;4.00;;;;;;;;5081022;28;28930;-80
2023/12/14 09:38:29;;;;;;;;;6.00;5.00;;;;;;;;5088240;28;29553;-73
2023/12/14 09:40:54;;;;;;;;;7.00;7.00;;;;;;;;5090338;28;28775;-85
2023/12/14 09:43:21;;;;;;;;;10.67;8.00;;;;;;;;5079149;27;28585;-79
2023/12/14 09:45:47;;;;;;;;;5.67;5.00;;;;;;;;5084606;27;28894;-73
2023/12/14 09:48:12;;;;;;;;;6.00;5.00;;;;;;;;5075438;27;28515;-72
2023/12/14 09:50:39;;;;;;;;;5.00;5.00;;;;;;;;5078399;28;28917;-72
2023/12/14 09:53:04;;;;;;;;;7.00;6.00;;;;;;;;5076268;27;27995;-71
2023/12/14 09:55:31;;;;;;;;;7.33;5.00;;;;;;;;5080301;28;28403;-78
2023/12/14 09:57:56;;;;;;;;;8.00;7.00;;;;;;;;5083170;27;28615;-78
2023/12/14 10:00:35;;;;;;;;;9.00;7.67;;;;;;;;5080789;28;28435;-81
2023/12/14 10:03:19;;;;;;;;;7.00;6.33;;;;;;;;5080779;27;28834;-80
2023/12/14 10:05:44;;;;;;;;;8.33;6.00;;;;;;;;5083659;27;28736;-71
2023/12/14 10:08:09;;;;;;;;;10.33;9.00;;;;;;;;5077809;27;28776;-80
2023/12/14 10:10:34;;;;;;;;;9.67;9.67;;;;;;;;5082115;27;28749;-78
2023/12/14 10:13:00;;;;;;;;;6.33;6.33;;;;;;;;5077566;27;28586;-73
2023/12/14 10:15:26;;;;;;;;;11.00;7.67;;;;;;;;5083754;27;27995;-72
2023/12/14 10:17:55;;;;;;;;;14.33;9.00;;;;;;;;5079534;27;28674;-73
2023/12/14 10:20:26;;;;;;;;;6.00;4.33;;;;;;;;5080943;27;28899;-79
2023/12/14 10:22:51;;;;;;;;;6.00;4.00;;;;;;;;5091390;27;28530;-80
2023/12/14 10:25:18;;;;;;;;;6.00;3.67;;;;;;;;5082757;27;28663;-71
2023/12/14 10:27:46;;;;;;;;;4.00;4.00;;;;;;;;5078660;27;29034;-71
2023/12/14 10:30:12;;;;;;;;;4.67;4.33;;;;;;;;5078105;27;28687;-71
2023/12/14 10:32:38;;;;;;;;;9.00;9.00;;;;;;;;5083343;27;28590;-74
2023/12/14 10:35:03;;;;;;;;;5.00;4.00;;;;;;;;5098359;27;28631;-79
2023/12/14 10:37:31;;;;;;;;;16.00;13.33;;;;;;;;5092933;27;28171;-81
2023/12/14 10:39:57;;;;;;;;;5.00;4.00;;;;;;;;5095461;27;27992;-79
2023/12/14 10:42:25;;;;;;;;;6.67;6.67;;;;;;;;5088425;27;28572;-79
2023/12/14 10:44:52;;;;;;;;;6.67;5.00;;;;;;;;5082934;27;28938;-73
2023/12/14 10:47:19;;;;;;;;;8.00;7.00;;;;;;;;5098574;27;28636;-79
2023/12/14 10:49:48;;;;;;;;;9.00;8.00;;;;;;;;5094486;27;28511;-84
2023/12/14 10:52:14;;;;;;;;;8.67;6.33;;;;;;;;5090363;27;28881;-79
2023/12/14 10:54:40;;;;;;;;;8.67;7.00;;;;;;;;5098918;27;28421;-79
2023/12/14 10:57:07;;;;;;;;;6.00;6.00;;;;;;;;5106005;27;28554;-77
2023/12/14 10:59:33;;;;;;;;;15.00;12.33;;;;;;;;5105996;27;28460;-79
2023/12/14 11:01:58;;;;;;;;;5.00;2.67;;;;;;;;5082101;27;28594;-77
2023/12/14 11:04:27;;;;;;;;;8.67;6.33;;;;;;;;5099050;27;28650;-79
2023/12/14 11:06:53;;;;;;;;;12.67;9.67;;;;;;;;5085617;27;28874;-83
2023/12/14 11:09:18;;;;;;;;;16.00;13.00;;;;;;;;5087644;27;28838;-70
2023/12/14 11:11:43;;;;;;;;;18.33;13.33;;;;;;;;5077614;28;28534;-70
2023/12/14 11:14:10;;;;;;;;;9.00;8.00;;;;;;;;5087881;27;28743;-78
2023/12/14 11:16:44;;;;;;;;;12.00;9.67;;;;;;;;5085217;28;30726;-82
2023/12/14 11:19:21;;;;;;;;;8.33;4.33;;;;;;;;5089122;27;28532;-78
2023/12/14 11:21:47;;;;;;;;;10.67;8.33;;;;;;;;5082873;27;28708;-79
2023/12/14 11:24:12;;;;;;;;;12.33;10.33;;;;;;;;5081566;27;28500;-79
2023/12/14 11:26:38;;;;;;;;;16.67;14.00;;;;;;;;5075948;27;28505;-78
2023/12/14 11:29:04;;;;;;;;;7.33;4.00;;;;;;;;5079711;27;28613;-79
2023/12/14 11:31:29;;;;;;;;;3.67;3.67;;;;;;;;5091672;27;27984;-78
2023/12/14 11:33:56;;;;;;;;;4.00;3.00;;;;;;;;5087454;27;28556;-80
2023/12/14 11:36:21;;;;;;;;;2.33;2.33;;;;;;;;5090615;27;30221;-79
2023/12/14 11:38:50;;;;;;;;;4.00;4.00;;;;;;;;5082782;27;28583;-79
2023/12/14 11:41:15;;;;;;;;;3.67;3.00;;;;;;;;5091919;27;28880;-77
2023/12/14 11:43:42;;;;;;;;;5.67;5.67;;;;;;;;5095633;27;28571;-79
2023/12/14 11:46:07;;;;;;;;;6.33;3.67;;;;;;;;5079977;27;28453;-74
2023/12/14 11:48:32;;;;;;;;;3.00;3.00;;;;;;;;5082772;27;29062;-74
2023/12/14 11:50:57;;;;;;;;;3.00;3.00;;;;;;;;5079536;27;28867;-73
2023/12/14 11:53:23;;;;;;;;;5.33;5.00;;;;;;;;5085096;27;28469;-73
2023/12/14 11:55:48;;;;;;;;;4.00;4.00;;;;;;;;5084096;27;28543;-74
2023/12/14 11:58:15;;;;;;;;;3.00;2.67;;;;;;;;5088108;27;28605;-73
2023/12/14 12:00:41;;;;;;;;;21.33;15.67;;;;;;;;5081523;27;28774;-78
2023/12/14 12:03:14;;;;;;;;;32.67;29.67;;;;;;;;5085256;27;28899;-79
2023/12/14 12:05:43;;;;;;;;;14.00;10.67;;;;;;;;5093704;27;28552;-73
2023/12/14 12:08:09;;;;;;;;;16.33;10.67;;;;;;;;5089401;27;29499;-72
2023/12/14 12:10:35;;;;;;;;;15.67;12.00;;;;;;;;5078495;27;28484;-73
2023/12/14 12:13:01;;;;;;;;;12.67;9.00;;;;;;;;5077988;27;28946;-75
2023/12/14 12:15:27;;;;;;;;;3.67;3.00;;;;;;;;5088833;27;28575;-73
2023/12/14 12:17:52;;;;;;;;;16.00;14.00;;;;;;;;5084826;27;28480;-73
2023/12/14 12:20:17;;;;;;;;;15.67;13.67;;;;;;;;5091077;27;28559;-73
2023/12/14 12:22:43;;;;;;;;;8.33;6.67;;;;;;;;5076741;28;28502;-80
2023/12/14 12:25:08;;;;;;;;;6.33;6.33;;;;;;;;5071141;28;28731;-71
2023/12/14 12:27:33;;;;;;;;;7.67;6.33;;;;;;;;5071635;28;28318;-77
2023/12/14 12:29:59;;;;;;;;;7.67;4.33;;;;;;;;5074791;27;28417;-79
2023/12/14 12:32:24;;;;;;;;;0.33;0.00;;;;;;;;5081520;28;30512;-70
2023/12/14 12:34:49;;;;;;;;;7.67;5.00;;;;;;;;5080276;28;28974;-79
2023/12/14 12:37:14;;;;;;;;;9.67;8.67;;;;;;;;5080134;28;28515;-71
2023/12/14 12:39:40;;;;;;;;;4.67;3.67;;;;;;;;5074612;28;28707;-69
2023/12/14 12:42:05;;;;;;;;;9.00;6.67;;;;;;;;5081710;28;28953;-69
2023/12/14 12:44:30;;;;;;;;;5.00;4.00;;;;;;;;5083279;27;29261;-67
2023/12/14 12:46:58;;;;;;;;;4.00;3.00;;;;;;;;5071136;28;28466;-71
2023/12/14 12:49:24;;;;;;;;;9.67;6.67;;;;;;;;5080090;28;29149;-69
2023/12/14 12:51:49;;;;;;;;;9.00;7.67;;;;;;;;5070721;28;28817;-69
2023/12/14 12:54:14;;;;;;;;;3.33;3.33;;;;;;;;5076636;28;28455;-79
2023/12/14 12:56:39;;;;;;;;;2.00;2.00;;;;;;;;5079888;28;28792;-78
2023/12/14 12:59:09;;;;;;;;;6.67;4.67;;;;;;;;5077053;27;28449;-79
2023/12/14 13:01:34;;;;;;;;;12.33;9.00;;;;;;;;5082512;27;28765;-70
2023/12/14 13:04:01;;;;;;;;;5.67;5.67;;;;;;;;5082114;27;28573;-70
2023/12/14 13:06:26;;;;;;;;;7.00;5.33;;;;;;;;5078526;27;28801;-73
2023/12/14 13:08:51;;;;;;;;;12.67;7.33;;;;;;;;5084046;27;28791;-71
2023/12/14 13:11:17;;;;;;;;;6.67;6.67;;;;;;;;5084673;27;28988;-70
2023/12/14 13:13:43;;;;;;;;;42.00;34.33;;;;;;;;5075443;28;29222;-70
2023/12/14 13:16:09;;;;;;;;;5.33;3.67;;;;;;;;5089247;27;28927;-80
2023/12/14 13:18:34;;;;;;;;;6.67;4.00;;;;;;;;5079241;27;28913;-72
2023/12/14 13:20:59;;;;;;;;;4.00;4.00;;;;;;;;5080703;27;30463;-71
2023/12/14 13:23:24;;;;;;;;;8.33;7.33;;;;;;;;5082525;28;28861;-71
2023/12/14 13:25:50;;;;;;;;;9.33;7.33;;;;;;;;5078087;27;28995;-71
2023/12/14 13:28:15;;;;;;;;;4.00;3.00;;;;;;;;5085621;27;28650;-72
2023/12/14 13:30:41;;;;;;;;;4.33;4.00;;;;;;;;5081905;28;28493;-70
2023/12/14 13:33:06;;;;;;;;;10.67;9.33;;;;;;;;5079435;27;29455;-70
2023/12/14 13:35:31;;;;;;;;;1.00;1.00;;;;;;;;5073723;27;28622;-78
2023/12/14 13:37:57;;;;;;;;;19.00;17.00;;;;;;;;5071619;27;28520;-79
2023/12/14 13:40:22;;;;;;;;;13.00;10.33;;;;;;;;5083583;27;30166;-79
2023/12/14 13:42:48;;;;;;;;;21.33;21.00;;;;;;;;5076150;27;29020;-74
2023/12/14 13:45:13;;;;;;;;;17.67;15.33;;;;;;;;5098679;27;28467;-70
2023/12/14 13:47:38;;;;;;;;;7.00;5.67;;;;;;;;5087650;27;28458;-77
2023/12/14 13:50:04;;;;;;;;;3.00;2.33;;;;;;;;5090299;28;28481;-80
2023/12/14 13:52:30;;;;;;;;;13.33;13.00;;;;;;;;5083962;27;28974;-79
2023/12/14 13:54:55;;;;;;;;;15.67;11.00;;;;;;;;5094362;27;28592;-78
2023/12/14 13:57:21;;;;;;;;;14.67;10.67;;;;;;;;5083223;27;28571;-78
2023/12/14 13:59:47;;;;;;;;;7.00;5.33;;;;;;;;5085089;28;29541;-80
2023/12/14 14:02:13;;;;;;;;;2.00;2.00;;;;;;;;5090766;27;29859;-72
2023/12/14 14:04:38;;;;;;;;;20.67;18.33;;;;;;;;5086720;27;29012;-79
2023/12/14 14:09:42;;;;;;;;;3.00;1.33;;;;;;;;4995235;22;27998;-78
2023/12/14 14:15:04;;;;;;;;;2.33;1.00;;;;;;;;5002673;28;28812;-77
2023/12/14 14:17:31;;;;;;;;;5.67;4.00;;;;;;;;5015153;28;28935;-74
2023/12/14 14:20:00;;;;;;;;;3.00;3.00;;;;;;;;5011406;28;30474;-76
2023/12/14 14:22:28;;;;;;;;;6.33;3.67;;;;;;;;5004920;28;28592;-80
2023/12/14 14:25:20;;;;;;;;;11.67;11.67;;;;;;;;5027645;28;28758;-82
2023/12/14 14:27:49;;;;;;;;;12.33;11.67;;;;;;;;5030428;28;29847;-81
2023/12/14 14:30:18;;;;;;;;;8.00;7.33;;;;;;;;5022046;28;28509;-82
2023/12/14 14:33:29;;;;;;;;;9.00;6.67;;;;;;;;5021894;28;28192;-81
2023/12/14 14:35:55;;;;;;;;;4.00;2.00;;;;;;;;4939841;28;28335;-82
2023/12/14 14:38:21;;;;;;;;;7.67;7.33;;;;;;;;4943133;28;28593;-83
2023/12/14 14:40:47;;;;;;;;;9.33;7.00;;;;;;;;4981885;28;28552;-82
2023/12/14 14:43:22;;;;;;;;;2.67;2.67;;;;;;;;5024799;28;29430;-82
2023/12/14 14:45:54;;;;;;;;;2.67;1.67;;;;;;;;5025586;28;28539;-85
2023/12/14 14:48:19;;;;;;;;;4.33;4.33;;;;;;;;5026277;28;27931;-81
2023/12/14 14:50:45;;;;;;;;;4.33;1.33;;;;;;;;5021658;28;27935;-80
2023/12/14 14:53:12;;;;;;;;;4.67;3.33;;;;;;;;5012811;28;29678;-81
2023/12/14 14:56:02;;;;;;;;;3.67;2.00;;;;;;;;5019917;28;28422;-77
2023/12/14 14:59:15;;;;;;;;;;;;;;;;;;;;;